sensor_id;sensor_type;location;lat;lon;timestamp;P1;durP1;ratioP1;P2;durP2;ratioP2
23826;SDS011;12094;50.822;4.376;2022-09-01T00:00:07;10.85;;;4.82;;
23826;SDS011;12094;50.822;4.376;2022-09-01T00:02:38;9.77;;;4.18;;
23826;SDS011;12094;50.822;4.376;2022-09-01T00:05:08;10.50;;;4.70;;
23826;SDS011;12094;50.822;4.376;2022-09-01T00:07:37;11.75;;;4.45;;
23826;SDS011;12094;50.822;4.376;2022-09-01T00:10:04;9.10;;;4.57;;
23826;SDS011;12094;50.822;4.376;2022-09-01T00:12:33;8.60;;;4.65;;
23826;SDS011;12094;50.822;4.376;2022-09-01T00:15:03;8.13;;;4.78;;
23826;SDS011;12094;50.822;4.376;2022-09-01T00:17:32;11.25;;;4.60;;
23826;SDS011;12094;50.822;4.376;2022-09-01T00:19:59;12.35;;;4.60;;
23826;SDS011;12094;50.822;4.376;2022-09-01T00:22:27;9.38;;;4.40;;
23826;SDS011;12094;50.822;4.376;2022-09-01T00:24:55;10.63;;;4.70;;
23826;SDS011;12094;50.822;4.376;2022-09-01T00:27:22;10.77;;;4.70;;
23826;SDS011;12094;50.822;4.376;2022-09-01T00:29:56;12.20;;;5.22;;
23826;SDS011;12094;50.822;4.376;2022-09-01T00:32:23;12.63;;;4.68;;
23826;SDS011;12094;50.822;4.376;2022-09-01T00:34:51;15.32;;;4.80;;
23826;SDS011;12094;50.822;4.376;2022-09-01T00:37:19;13.60;;;5.18;;
23826;SDS011;12094;50.822;4.376;2022-09-01T00:39:46;9.02;;;4.65;;
23826;SDS011;12094;50.822;4.376;2022-09-01T00:42:13;10.07;;;4.65;;
23826;SDS011;12094;50.822;4.376;2022-09-01T00:44:40;19.17;;;5.68;;
23826;SDS011;12094;50.822;4.376;2022-09-01T00:47:07;11.48;;;4.65;;
23826;SDS011;12094;50.822;4.376;2022-09-01T00:49:35;14.02;;;4.88;;
23826;SDS011;12094;50.822;4.376;2022-09-01T00:52:10;10.20;;;4.60;;
23826;SDS011;12094;50.822;4.376;2022-09-01T00:54:46;12.65;;;4.85;;
23826;SDS011;12094;50.822;4.376;2022-09-01T00:57:17;10.68;;;4.50;;
23826;SDS011;12094;50.822;4.376;2022-09-01T00:59:52;7.93;;;4.93;;
23826;SDS011;12094;50.822;4.376;2022-09-01T01:02:23;12.07;;;4.82;;
23826;SDS011;12094;50.822;4.376;2022-09-01T01:04:51;10.25;;;5.18;;
23826;SDS011;12094;50.822;4.376;2022-09-01T01:07:22;13.25;;;5.18;;
23826;SDS011;12094;50.822;4.376;2022-09-01T01:09:49;8.23;;;5.07;;
23826;SDS011;12094;50.822;4.376;2022-09-01T01:12:17;13.70;;;5.50;;
23826;SDS011;12094;50.822;4.376;2022-09-01T01:14:45;13.82;;;5.30;;
23826;SDS011;12094;50.822;4.376;2022-09-01T01:17:19;16.85;;;6.03;;
23826;SDS011;12094;50.822;4.376;2022-09-01T01:19:52;10.57;;;5.65;;
23826;SDS011;12094;50.822;4.376;2022-09-01T01:22:44;10.32;;;5.90;;
23826;SDS011;12094;50.822;4.376;2022-09-01T01:25:29;10.70;;;5.95;;
23826;SDS011;12094;50.822;4.376;2022-09-01T01:30:39;14.18;;;5.80;;
23826;SDS011;12094;50.822;4.376;2022-09-01T01:33:11;12.20;;;5.60;;
23826;SDS011;12094;50.822;4.376;2022-09-01T01:35:38;11.57;;;6.20;;
23826;SDS011;12094;50.822;4.376;2022-09-01T01:38:08;13.45;;;6.60;;
23826;SDS011;12094;50.822;4.376;2022-09-01T01:40:35;9.25;;;5.90;;
23826;SDS011;12094;50.822;4.376;2022-09-01T01:43:05;16.60;;;6.93;;
23826;SDS011;12094;50.822;4.376;2022-09-01T01:45:33;13.75;;;6.43;;
23826;SDS011;12094;50.822;4.376;2022-09-01T01:48:00;16.50;;;7.10;;
23826;SDS011;12094;50.822;4.376;2022-09-01T01:50:34;13.02;;;6.78;;
23826;SDS011;12094;50.822;4.376;2022-09-01T01:53:05;16.25;;;7.35;;
23826;SDS011;12094;50.822;4.376;2022-09-01T01:55:38;13.77;;;7.28;;
23826;SDS011;12094;50.822;4.376;2022-09-01T01:58:07;12.98;;;6.93;;
23826;SDS011;12094;50.822;4.376;2022-09-01T02:00:38;12.10;;;7.07;;
23826;SDS011;12094;50.822;4.376;2022-09-01T02:03:07;14.10;;;6.68;;
23826;SDS011;12094;50.822;4.376;2022-09-01T02:05:35;15.85;;;7.65;;
23826;SDS011;12094;50.822;4.376;2022-09-01T02:08:04;13.70;;;7.18;;
23826;SDS011;12094;50.822;4.376;2022-09-01T02:10:35;14.20;;;7.60;;
23826;SDS011;12094;50.822;4.376;2022-09-01T02:13:07;16.45;;;7.65;;
23826;SDS011;12094;50.822;4.376;2022-09-01T02:15:38;13.13;;;7.45;;
23826;SDS011;12094;50.822;4.376;2022-09-01T02:18:17;20.75;;;7.72;;
23826;SDS011;12094;50.822;4.376;2022-09-01T02:20:47;17.70;;;7.70;;
23826;SDS011;12094;50.822;4.376;2022-09-01T02:23:15;19.42;;;7.57;;
23826;SDS011;12094;50.822;4.376;2022-09-01T02:25:49;25.42;;;8.07;;
23826;SDS011;12094;50.822;4.376;2022-09-01T02:28:40;16.17;;;8.15;;
23826;SDS011;12094;50.822;4.376;2022-09-01T02:31:10;14.98;;;7.63;;
23826;SDS011;12094;50.822;4.376;2022-09-01T02:33:38;15.88;;;7.60;;
23826;SDS011;12094;50.822;4.376;2022-09-01T02:36:09;19.10;;;7.82;;
23826;SDS011;12094;50.822;4.376;2022-09-01T02:41:21;18.55;;;7.72;;
23826;SDS011;12094;50.822;4.376;2022-09-01T02:43:52;12.32;;;7.47;;
23826;SDS011;12094;50.822;4.376;2022-09-01T02:46:19;13.55;;;7.20;;
23826;SDS011;12094;50.822;4.376;2022-09-01T02:48:50;21.40;;;8.07;;
23826;SDS011;12094;50.822;4.376;2022-09-01T02:51:20;15.48;;;8.40;;
23826;SDS011;12094;50.822;4.376;2022-09-01T02:53:48;16.88;;;8.30;;
23826;SDS011;12094;50.822;4.376;2022-09-01T02:56:18;14.38;;;7.70;;
23826;SDS011;12094;50.822;4.376;2022-09-01T02:58:51;16.38;;;7.72;;
23826;SDS011;12094;50.822;4.376;2022-09-01T03:03:57;14.68;;;8.18;;
23826;SDS011;12094;50.822;4.376;2022-09-01T03:06:30;17.15;;;7.50;;
23826;SDS011;12094;50.822;4.376;2022-09-01T03:09:00;16.10;;;7.97;;
23826;SDS011;12094;50.822;4.376;2022-09-01T03:11:31;17.35;;;8.38;;
23826;SDS011;12094;50.822;4.376;2022-09-01T03:14:00;15.25;;;8.55;;
23826;SDS011;12094;50.822;4.376;2022-09-01T03:16:28;15.88;;;8.25;;
23826;SDS011;12094;50.822;4.376;2022-09-01T03:18:56;16.00;;;8.27;;
23826;SDS011;12094;50.822;4.376;2022-09-01T03:21:23;15.48;;;8.57;;
23826;SDS011;12094;50.822;4.376;2022-09-01T03:23:51;14.60;;;7.80;;
23826;SDS011;12094;50.822;4.376;2022-09-01T03:26:19;20.95;;;8.32;;
23826;SDS011;12094;50.822;4.376;2022-09-01T03:28:50;14.18;;;8.23;;
23826;SDS011;12094;50.822;4.376;2022-09-01T03:31:18;14.05;;;7.88;;
23826;SDS011;12094;50.822;4.376;2022-09-01T03:33:48;19.33;;;7.95;;
23826;SDS011;12094;50.822;4.376;2022-09-01T03:36:23;16.80;;;8.02;;
23826;SDS011;12094;50.822;4.376;2022-09-01T03:38:50;15.60;;;8.18;;
23826;SDS011;12094;50.822;4.376;2022-09-01T03:41:21;14.85;;;8.05;;
23826;SDS011;12094;50.822;4.376;2022-09-01T03:43:51;14.38;;;8.23;;
23826;SDS011;12094;50.822;4.376;2022-09-01T03:46:22;17.38;;;8.27;;
23826;SDS011;12094;50.822;4.376;2022-09-01T03:48:54;13.25;;;7.82;;
23826;SDS011;12094;50.822;4.376;2022-09-01T03:51:25;17.75;;;8.63;;
23826;SDS011;12094;50.822;4.376;2022-09-01T03:53:53;16.63;;;8.52;;
23826;SDS011;12094;50.822;4.376;2022-09-01T03:56:21;18.20;;;8.25;;
23826;SDS011;12094;50.822;4.376;2022-09-01T03:58:50;20.45;;;8.77;;
23826;SDS011;12094;50.822;4.376;2022-09-01T04:01:18;18.80;;;9.00;;
23826;SDS011;12094;50.822;4.376;2022-09-01T04:03:46;15.45;;;8.38;;
23826;SDS011;12094;50.822;4.376;2022-09-01T04:06:17;15.27;;;7.97;;
23826;SDS011;12094;50.822;4.376;2022-09-01T04:08:46;17.75;;;8.32;;
23826;SDS011;12094;50.822;4.376;2022-09-01T04:11:14;18.52;;;8.23;;
23826;SDS011;12094;50.822;4.376;2022-09-01T04:13:50;20.65;;;8.65;;
23826;SDS011;12094;50.822;4.376;2022-09-01T04:16:21;14.70;;;8.75;;
23826;SDS011;12094;50.822;4.376;2022-09-01T04:19:09;13.52;;;7.60;;
23826;SDS011;12094;50.822;4.376;2022-09-01T04:21:48;18.75;;;8.30;;
23826;SDS011;12094;50.822;4.376;2022-09-01T04:24:17;20.63;;;8.15;;
23826;SDS011;12094;50.822;4.376;2022-09-01T04:26:46;22.77;;;9.00;;
23826;SDS011;12094;50.822;4.376;2022-09-01T04:29:16;19.13;;;9.73;;
23826;SDS011;12094;50.822;4.376;2022-09-01T04:31:45;20.65;;;8.77;;
23826;SDS011;12094;50.822;4.376;2022-09-01T04:34:19;22.58;;;9.02;;
23826;SDS011;12094;50.822;4.376;2022-09-01T04:36:47;17.85;;;8.98;;
23826;SDS011;12094;50.822;4.376;2022-09-01T04:39:19;14.60;;;8.83;;
23826;SDS011;12094;50.822;4.376;2022-09-01T04:41:48;18.80;;;8.52;;
23826;SDS011;12094;50.822;4.376;2022-09-01T04:44:15;16.83;;;8.57;;
23826;SDS011;12094;50.822;4.376;2022-09-01T04:46:45;26.58;;;9.48;;
23826;SDS011;12094;50.822;4.376;2022-09-01T04:49:14;15.63;;;8.35;;
23826;SDS011;12094;50.822;4.376;2022-09-01T04:51:47;17.92;;;8.65;;
23826;SDS011;12094;50.822;4.376;2022-09-01T04:54:21;17.52;;;8.73;;
23826;SDS011;12094;50.822;4.376;2022-09-01T04:56:49;21.85;;;9.25;;
23826;SDS011;12094;50.822;4.376;2022-09-01T04:59:19;19.42;;;8.95;;
23826;SDS011;12094;50.822;4.376;2022-09-01T05:01:53;17.40;;;8.68;;
23826;SDS011;12094;50.822;4.376;2022-09-01T05:04:24;16.33;;;8.50;;
23826;SDS011;12094;50.822;4.376;2022-09-01T05:06:54;16.95;;;8.77;;
23826;SDS011;12094;50.822;4.376;2022-09-01T05:09:45;16.45;;;8.35;;
23826;SDS011;12094;50.822;4.376;2022-09-01T05:12:33;18.63;;;8.55;;
23826;SDS011;12094;50.822;4.376;2022-09-01T05:15:03;20.75;;;8.48;;
23826;SDS011;12094;50.822;4.376;2022-09-01T05:17:32;19.42;;;8.70;;
23826;SDS011;12094;50.822;4.376;2022-09-01T05:19:59;20.35;;;8.70;;
23826;SDS011;12094;50.822;4.376;2022-09-01T05:22:27;17.00;;;7.63;;
23826;SDS011;12094;50.822;4.376;2022-09-01T05:24:57;21.65;;;8.40;;
23826;SDS011;12094;50.822;4.376;2022-09-01T05:27:31;19.65;;;7.82;;
23826;SDS011;12094;50.822;4.376;2022-09-01T05:29:59;15.95;;;7.65;;
23826;SDS011;12094;50.822;4.376;2022-09-01T05:32:29;20.60;;;8.02;;
23826;SDS011;12094;50.822;4.376;2022-09-01T05:34:57;28.00;;;8.40;;
23826;SDS011;12094;50.822;4.376;2022-09-01T05:37:25;18.63;;;8.10;;
23826;SDS011;12094;50.822;4.376;2022-09-01T05:39:54;18.63;;;8.23;;
23826;SDS011;12094;50.822;4.376;2022-09-01T05:42:21;16.80;;;7.47;;
23826;SDS011;12094;50.822;4.376;2022-09-01T05:44:48;16.88;;;7.80;;
23826;SDS011;12094;50.822;4.376;2022-09-01T05:47:18;17.48;;;8.27;;
23826;SDS011;12094;50.822;4.376;2022-09-01T05:52:18;15.75;;;8.10;;
23826;SDS011;12094;50.822;4.376;2022-09-01T05:54:52;20.17;;;8.73;;
23826;SDS011;12094;50.822;4.376;2022-09-01T05:57:20;36.28;;;9.18;;
23826;SDS011;12094;50.822;4.376;2022-09-01T06:00:06;21.75;;;8.35;;
23826;SDS011;12094;50.822;4.376;2022-09-01T06:02:39;15.75;;;7.60;;
23826;SDS011;12094;50.822;4.376;2022-09-01T06:05:13;20.88;;;7.50;;
23826;SDS011;12094;50.822;4.376;2022-09-01T06:07:41;19.73;;;7.25;;
23826;SDS011;12094;50.822;4.376;2022-09-01T06:10:10;20.08;;;7.68;;
23826;SDS011;12094;50.822;4.376;2022-09-01T06:12:39;15.98;;;7.47;;
23826;SDS011;12094;50.822;4.376;2022-09-01T06:15:08;13.88;;;7.53;;
23826;SDS011;12094;50.822;4.376;2022-09-01T06:17:44;18.35;;;8.10;;
23826;SDS011;12094;50.822;4.376;2022-09-01T06:20:13;19.65;;;7.70;;
23826;SDS011;12094;50.822;4.376;2022-09-01T06:22:43;22.35;;;7.15;;
23826;SDS011;12094;50.822;4.376;2022-09-01T06:25:11;19.10;;;7.18;;
23826;SDS011;12094;50.822;4.376;2022-09-01T06:27:44;17.02;;;7.40;;
23826;SDS011;12094;50.822;4.376;2022-09-01T06:30:14;23.30;;;7.07;;
23826;SDS011;12094;50.822;4.376;2022-09-01T06:33:02;15.43;;;6.97;;
23826;SDS011;12094;50.822;4.376;2022-09-01T06:35:34;11.75;;;6.60;;
23826;SDS011;12094;50.822;4.376;2022-09-01T06:38:02;14.38;;;7.05;;
23826;SDS011;12094;50.822;4.376;2022-09-01T06:40:36;16.27;;;7.00;;
23826;SDS011;12094;50.822;4.376;2022-09-01T06:43:07;23.77;;;7.38;;
23826;SDS011;12094;50.822;4.376;2022-09-01T06:45:42;17.27;;;6.63;;
23826;SDS011;12094;50.822;4.376;2022-09-01T06:48:15;24.05;;;7.30;;
23826;SDS011;12094;50.822;4.376;2022-09-01T06:50:47;14.65;;;6.78;;
23826;SDS011;12094;50.822;4.376;2022-09-01T06:53:34;23.58;;;10.88;;
23826;SDS011;12094;50.822;4.376;2022-09-01T06:56:15;15.57;;;7.10;;
23826;SDS011;12094;50.822;4.376;2022-09-01T06:58:45;15.23;;;6.50;;
23826;SDS011;12094;50.822;4.376;2022-09-01T07:01:15;10.75;;;5.97;;
23826;SDS011;12094;50.822;4.376;2022-09-01T07:03:45;16.13;;;6.40;;
23826;SDS011;12094;50.822;4.376;2022-09-01T07:09:42;11.13;;;5.80;;
23826;SDS011;12094;50.822;4.376;2022-09-01T07:12:27;17.33;;;6.60;;
23826;SDS011;12094;50.822;4.376;2022-09-01T07:14:57;18.45;;;6.32;;
23826;SDS011;12094;50.822;4.376;2022-09-01T07:17:46;10.25;;;6.40;;
23826;SDS011;12094;50.822;4.376;2022-09-01T07:20:22;9.20;;;6.03;;
23826;SDS011;12094;50.822;4.376;2022-09-01T07:22:53;9.43;;;5.40;;
23826;SDS011;12094;50.822;4.376;2022-09-01T07:25:33;13.25;;;6.10;;
23826;SDS011;12094;50.822;4.376;2022-09-01T07:28:32;12.70;;;6.13;;
23826;SDS011;12094;50.822;4.376;2022-09-01T07:31:03;9.93;;;5.80;;
23826;SDS011;12094;50.822;4.376;2022-09-01T07:33:55;9.23;;;5.30;;
23826;SDS011;12094;50.822;4.376;2022-09-01T07:36:48;9.50;;;5.25;;
23826;SDS011;12094;50.822;4.376;2022-09-01T07:39:36;11.50;;;5.70;;
23826;SDS011;12094;50.822;4.376;2022-09-01T07:42:37;10.77;;;5.72;;
23826;SDS011;12094;50.822;4.376;2022-09-01T07:45:45;15.70;;;5.85;;
23826;SDS011;12094;50.822;4.376;2022-09-01T07:48:25;10.77;;;5.22;;
23826;SDS011;12094;50.822;4.376;2022-09-01T07:51:14;11.40;;;5.30;;
23826;SDS011;12094;50.822;4.376;2022-09-01T07:54:02;12.32;;;5.57;;
23826;SDS011;12094;50.822;4.376;2022-09-01T07:56:29;11.95;;;5.10;;
23826;SDS011;12094;50.822;4.376;2022-09-01T07:59:01;11.70;;;4.90;;
23826;SDS011;12094;50.822;4.376;2022-09-01T08:01:30;14.00;;;5.78;;
23826;SDS011;12094;50.822;4.376;2022-09-01T08:03:58;7.88;;;5.07;;
23826;SDS011;12094;50.822;4.376;2022-09-01T08:06:27;10.52;;;4.70;;
23826;SDS011;12094;50.822;4.376;2022-09-01T08:09:05;13.02;;;4.88;;
23826;SDS011;12094;50.822;4.376;2022-09-01T08:11:38;10.30;;;5.00;;
23826;SDS011;12094;50.822;4.376;2022-09-01T08:14:25;16.67;;;5.68;;
23826;SDS011;12094;50.822;4.376;2022-09-01T08:16:52;12.90;;;5.30;;
23826;SDS011;12094;50.822;4.376;2022-09-01T08:19:20;10.07;;;4.80;;
23826;SDS011;12094;50.822;4.376;2022-09-01T08:22:10;11.43;;;5.03;;
23826;SDS011;12094;50.822;4.376;2022-09-01T08:24:46;13.77;;;5.13;;
23826;SDS011;12094;50.822;4.376;2022-09-01T08:27:13;13.70;;;4.32;;
23826;SDS011;12094;50.822;4.376;2022-09-01T08:29:40;13.43;;;4.75;;
23826;SDS011;12094;50.822;4.376;2022-09-01T08:32:07;10.18;;;4.28;;
23826;SDS011;12094;50.822;4.376;2022-09-01T08:34:36;11.23;;;4.30;;
23826;SDS011;12094;50.822;4.376;2022-09-01T08:37:04;9.85;;;4.00;;
23826;SDS011;12094;50.822;4.376;2022-09-01T08:39:32;14.57;;;4.32;;
23826;SDS011;12094;50.822;4.376;2022-09-01T08:45:10;5.82;;;4.05;;
23826;SDS011;12094;50.822;4.376;2022-09-01T08:47:38;7.45;;;3.90;;
23826;SDS011;12094;50.822;4.376;2022-09-01T08:50:25;7.80;;;3.80;;
23826;SDS011;12094;50.822;4.376;2022-09-01T08:53:28;5.68;;;3.75;;
23826;SDS011;12094;50.822;4.376;2022-09-01T08:56:00;6.40;;;3.75;;
23826;SDS011;12094;50.822;4.376;2022-09-01T08:58:28;10.60;;;4.57;;
23826;SDS011;12094;50.822;4.376;2022-09-01T09:02:05;6.80;;;3.58;;
23826;SDS011;12094;50.822;4.376;2022-09-01T09:10:08;13.18;;;3.85;;
23826;SDS011;12094;50.822;4.376;2022-09-01T09:16:37;9.75;;;3.70;;
23826;SDS011;12094;50.822;4.376;2022-09-01T09:18:52;6.55;;;3.90;;
23826;SDS011;12094;50.822;4.376;2022-09-01T09:27:17;5.80;;;3.30;;
23826;SDS011;12094;50.822;4.376;2022-09-01T09:29:48;7.95;;;3.67;;
23826;SDS011;12094;50.822;4.376;2022-09-01T09:32:21;5.00;;;3.28;;
23826;SDS011;12094;50.822;4.376;2022-09-01T09:38:32;5.80;;;3.38;;
23826;SDS011;12094;50.822;4.376;2022-09-01T09:40:59;7.38;;;3.25;;
23826;SDS011;12094;50.822;4.376;2022-09-01T09:43:49;5.88;;;3.65;;
23826;SDS011;12094;50.822;4.376;2022-09-01T09:46:27;4.25;;;3.28;;
23826;SDS011;12094;50.822;4.376;2022-09-01T09:54:35;6.57;;;2.78;;
23826;SDS011;12094;50.822;4.376;2022-09-01T09:57:13;9.23;;;3.35;;
23826;SDS011;12094;50.822;4.376;2022-09-01T09:59:48;7.75;;;3.22;;
23826;SDS011;12094;50.822;4.376;2022-09-01T10:05:10;3.30;;;2.83;;
23826;SDS011;12094;50.822;4.376;2022-09-01T10:07:47;7.40;;;2.65;;
23826;SDS011;12094;50.822;4.376;2022-09-01T10:12:52;6.63;;;2.17;;
23826;SDS011;12094;50.822;4.376;2022-09-01T10:15:21;7.07;;;2.55;;
23826;SDS011;12094;50.822;4.376;2022-09-01T10:17:52;4.82;;;2.30;;
23826;SDS011;12094;50.822;4.376;2022-09-01T10:20:44;4.20;;;2.10;;
23826;SDS011;12094;50.822;4.376;2022-09-01T10:23:18;3.95;;;2.05;;
23826;SDS011;12094;50.822;4.376;2022-09-01T10:25:45;2.72;;;2.03;;
23826;SDS011;12094;50.822;4.376;2022-09-01T10:28:17;5.63;;;2.38;;
23826;SDS011;12094;50.822;4.376;2022-09-01T10:30:52;5.32;;;2.10;;
23826;SDS011;12094;50.822;4.376;2022-09-01T10:33:20;4.93;;;2.90;;
23826;SDS011;12094;50.822;4.376;2022-09-01T10:35:48;8.98;;;2.10;;
23826;SDS011;12094;50.822;4.376;2022-09-01T10:38:23;14.15;;;2.85;;
23826;SDS011;12094;50.822;4.376;2022-09-01T10:40:55;6.10;;;2.47;;
23826;SDS011;12094;50.822;4.376;2022-09-01T10:46:40;4.53;;;2.10;;
23826;SDS011;12094;50.822;4.376;2022-09-01T10:49:17;6.32;;;2.38;;
23826;SDS011;12094;50.822;4.376;2022-09-01T10:51:58;4.80;;;2.33;;
23826;SDS011;12094;50.822;4.376;2022-09-01T10:57:24;4.97;;;2.60;;
23826;SDS011;12094;50.822;4.376;2022-09-01T11:06:08;8.15;;;2.50;;
23826;SDS011;12094;50.822;4.376;2022-09-01T11:08:44;7.88;;;2.10;;
23826;SDS011;12094;50.822;4.376;2022-09-01T11:11:29;7.82;;;2.00;;
23826;SDS011;12094;50.822;4.376;2022-09-01T11:14:22;5.97;;;2.20;;
23826;SDS011;12094;50.822;4.376;2022-09-01T11:17:09;7.60;;;2.42;;
23826;SDS011;12094;50.822;4.376;2022-09-01T11:19:46;5.18;;;2.22;;
23826;SDS011;12094;50.822;4.376;2022-09-01T11:36:10;5.32;;;2.05;;
23826;SDS011;12094;50.822;4.376;2022-09-01T11:41:25;7.88;;;2.10;;
23826;SDS011;12094;50.822;4.376;2022-09-01T11:44:00;4.80;;;2.10;;
23826;SDS011;12094;50.822;4.376;2022-09-01T11:46:36;6.93;;;1.80;;
23826;SDS011;12094;50.822;4.376;2022-09-01T11:49:29;6.38;;;1.88;;
23826;SDS011;12094;50.822;4.376;2022-09-01T11:52:02;4.18;;;1.85;;
23826;SDS011;12094;50.822;4.376;2022-09-01T11:54:38;4.57;;;2.25;;
23826;SDS011;12094;50.822;4.376;2022-09-01T11:57:24;7.15;;;3.10;;
23826;SDS011;12094;50.822;4.376;2022-09-01T12:00:06;9.60;;;2.10;;
23826;SDS011;12094;50.822;4.376;2022-09-01T12:02:48;6.97;;;1.98;;
23826;SDS011;12094;50.822;4.376;2022-09-01T12:08:02;5.80;;;1.80;;
23826;SDS011;12094;50.822;4.376;2022-09-01T12:10:40;3.40;;;1.90;;
23826;SDS011;12094;50.822;4.376;2022-09-01T12:13:10;4.70;;;2.22;;
23826;SDS011;12094;50.822;4.376;2022-09-01T12:15:53;11.48;;;2.30;;
23826;SDS011;12094;50.822;4.376;2022-09-01T12:18:46;9.20;;;2.20;;
23826;SDS011;12094;50.822;4.376;2022-09-01T12:21:26;7.53;;;1.70;;
23826;SDS011;12094;50.822;4.376;2022-09-01T12:24:10;5.70;;;1.90;;
23826;SDS011;12094;50.822;4.376;2022-09-01T12:26:46;4.20;;;2.10;;
23826;SDS011;12094;50.822;4.376;2022-09-01T12:29:16;5.28;;;2.28;;
23826;SDS011;12094;50.822;4.376;2022-09-01T12:31:44;6.32;;;2.08;;
23826;SDS011;12094;50.822;4.376;2022-09-01T12:37:22;4.25;;;2.15;;
23826;SDS011;12094;50.822;4.376;2022-09-01T12:39:55;4.63;;;2.60;;
23826;SDS011;12094;50.822;4.376;2022-09-01T12:42:24;10.93;;;2.20;;
23826;SDS011;12094;50.822;4.376;2022-09-01T12:45:08;5.50;;;1.90;;
23826;SDS011;12094;50.822;4.376;2022-09-01T12:52:51;3.58;;;1.80;;
23826;SDS011;12094;50.822;4.376;2022-09-01T12:55:28;4.93;;;2.00;;
23826;SDS011;12094;50.822;4.376;2022-09-01T13:04:06;6.28;;;1.90;;
23826;SDS011;12094;50.822;4.376;2022-09-01T13:06:40;6.90;;;2.20;;
23826;SDS011;12094;50.822;4.376;2022-09-01T13:09:07;7.07;;;2.05;;
23826;SDS011;12094;50.822;4.376;2022-09-01T13:11:35;5.28;;;2.13;;
23826;SDS011;12094;50.822;4.376;2022-09-01T13:14:22;5.68;;;2.03;;
23826;SDS011;12094;50.822;4.376;2022-09-01T13:16:50;9.50;;;2.10;;
23826;SDS011;12094;50.822;4.376;2022-09-01T13:19:17;5.68;;;2.00;;
23826;SDS011;12094;50.822;4.376;2022-09-01T13:21:54;2.63;;;1.77;;
23826;SDS011;12094;50.822;4.376;2022-09-01T13:24:21;6.45;;;2.30;;
23826;SDS011;12094;50.822;4.376;2022-09-01T13:26:55;4.32;;;2.30;;
23826;SDS011;12094;50.822;4.376;2022-09-01T13:29:42;8.93;;;2.00;;
23826;SDS011;12094;50.822;4.376;2022-09-01T13:32:10;6.85;;;2.50;;
23826;SDS011;12094;50.822;4.376;2022-09-01T13:34:48;7.75;;;1.92;;
23826;SDS011;12094;50.822;4.376;2022-09-01T13:37:21;3.42;;;2.00;;
23826;SDS011;12094;50.822;4.376;2022-09-01T13:39:48;5.07;;;2.15;;
23826;SDS011;12094;50.822;4.376;2022-09-01T13:42:16;4.95;;;1.98;;
23826;SDS011;12094;50.822;4.376;2022-09-01T13:44:43;3.58;;;1.70;;
23826;SDS011;12094;50.822;4.376;2022-09-01T13:47:17;7.07;;;2.00;;
23826;SDS011;12094;50.822;4.376;2022-09-01T13:50:04;11.73;;;2.17;;
23826;SDS011;12094;50.822;4.376;2022-09-01T13:52:44;15.75;;;2.08;;
23826;SDS011;12094;50.822;4.376;2022-09-01T13:55:28;8.07;;;2.10;;
23826;SDS011;12094;50.822;4.376;2022-09-01T13:57:57;3.22;;;2.05;;
23826;SDS011;12094;50.822;4.376;2022-09-01T14:00:26;3.45;;;1.65;;
23826;SDS011;12094;50.822;4.376;2022-09-01T14:02:55;2.65;;;1.70;;
23826;SDS011;12094;50.822;4.376;2022-09-01T14:05:27;6.45;;;2.17;;
23826;SDS011;12094;50.822;4.376;2022-09-01T14:07:56;4.80;;;1.98;;
23826;SDS011;12094;50.822;4.376;2022-09-01T14:10:24;5.07;;;2.00;;
23826;SDS011;12094;50.822;4.376;2022-09-01T14:12:53;8.45;;;2.08;;
23826;SDS011;12094;50.822;4.376;2022-09-01T14:15:20;3.20;;;1.92;;
23826;SDS011;12094;50.822;4.376;2022-09-01T14:17:55;10.15;;;2.30;;
23826;SDS011;12094;50.822;4.376;2022-09-01T14:20:25;5.53;;;2.08;;
23826;SDS011;12094;50.822;4.376;2022-09-01T14:22:56;4.38;;;1.90;;
23826;SDS011;12094;50.822;4.376;2022-09-01T14:25:23;5.55;;;2.10;;
23826;SDS011;12094;50.822;4.376;2022-09-01T14:27:50;3.25;;;1.83;;
23826;SDS011;12094;50.822;4.376;2022-09-01T14:30:20;8.05;;;2.15;;
23826;SDS011;12094;50.822;4.376;2022-09-01T14:32:55;5.13;;;1.98;;
23826;SDS011;12094;50.822;4.376;2022-09-01T14:35:24;4.65;;;1.90;;
23826;SDS011;12094;50.822;4.376;2022-09-01T14:37:52;3.92;;;2.13;;
23826;SDS011;12094;50.822;4.376;2022-09-01T14:40:21;9.27;;;2.30;;
23826;SDS011;12094;50.822;4.376;2022-09-01T14:42:50;8.32;;;2.50;;
23826;SDS011;12094;50.822;4.376;2022-09-01T14:45:19;7.38;;;2.22;;
23826;SDS011;12094;50.822;4.376;2022-09-01T14:47:48;3.67;;;2.08;;
23826;SDS011;12094;50.822;4.376;2022-09-01T14:50:18;9.25;;;2.30;;
23826;SDS011;12094;50.822;4.376;2022-09-01T14:52:49;5.40;;;1.83;;
23826;SDS011;12094;50.822;4.376;2022-09-01T14:55:20;3.55;;;1.80;;
23826;SDS011;12094;50.822;4.376;2022-09-01T14:57:48;8.82;;;2.03;;
23826;SDS011;12094;50.822;4.376;2022-09-01T15:00:15;7.60;;;1.77;;
23826;SDS011;12094;50.822;4.376;2022-09-01T15:02:42;2.38;;;1.60;;
23826;SDS011;12094;50.822;4.376;2022-09-01T15:05:10;6.25;;;1.77;;
23826;SDS011;12094;50.822;4.376;2022-09-01T15:07:39;5.28;;;1.92;;
23826;SDS011;12094;50.822;4.376;2022-09-01T15:10:07;8.75;;;1.90;;
23826;SDS011;12094;50.822;4.376;2022-09-01T15:12:36;3.20;;;1.70;;
23826;SDS011;12094;50.822;4.376;2022-09-01T15:15:05;7.55;;;2.05;;
23826;SDS011;12094;50.822;4.376;2022-09-01T15:17:33;3.63;;;1.73;;
23826;SDS011;12094;50.822;4.376;2022-09-01T15:20:02;3.22;;;1.92;;
23826;SDS011;12094;50.822;4.376;2022-09-01T15:22:48;11.90;;;2.00;;
23826;SDS011;12094;50.822;4.376;2022-09-01T15:25:16;6.90;;;1.92;;
23826;SDS011;12094;50.822;4.376;2022-09-01T15:27:43;7.47;;;1.83;;
23826;SDS011;12094;50.822;4.376;2022-09-01T15:30:12;4.35;;;2.03;;
23826;SDS011;12094;50.822;4.376;2022-09-01T15:32:43;3.70;;;1.70;;
23826;SDS011;12094;50.822;4.376;2022-09-01T15:35:11;5.13;;;1.65;;
23826;SDS011;12094;50.822;4.376;2022-09-01T15:37:39;5.43;;;1.83;;
23826;SDS011;12094;50.822;4.376;2022-09-01T15:40:06;8.18;;;1.95;;
23826;SDS011;12094;50.822;4.376;2022-09-01T15:42:35;5.93;;;1.88;;
23826;SDS011;12094;50.822;4.376;2022-09-01T15:45:10;5.78;;;1.83;;
23826;SDS011;12094;50.822;4.376;2022-09-01T15:47:40;6.35;;;1.85;;
23826;SDS011;12094;50.822;4.376;2022-09-01T15:50:11;6.15;;;1.55;;
23826;SDS011;12094;50.822;4.376;2022-09-01T15:55:24;4.07;;;1.70;;
23826;SDS011;12094;50.822;4.376;2022-09-01T15:57:56;2.88;;;1.63;;
23826;SDS011;12094;50.822;4.376;2022-09-01T16:00:26;4.30;;;1.58;;
23826;SDS011;12094;50.822;4.376;2022-09-01T16:02:54;6.00;;;1.90;;
23826;SDS011;12094;50.822;4.376;2022-09-01T16:05:23;4.60;;;1.73;;
23826;SDS011;12094;50.822;4.376;2022-09-01T16:07:50;4.57;;;1.90;;
23826;SDS011;12094;50.822;4.376;2022-09-01T16:10:21;3.30;;;1.70;;
23826;SDS011;12094;50.822;4.376;2022-09-01T16:12:48;4.00;;;1.63;;
23826;SDS011;12094;50.822;4.376;2022-09-01T16:15:19;4.88;;;1.80;;
23826;SDS011;12094;50.822;4.376;2022-09-01T16:20:26;5.93;;;1.90;;
23826;SDS011;12094;50.822;4.376;2022-09-01T16:25:39;3.08;;;1.60;;
23826;SDS011;12094;50.822;4.376;2022-09-01T16:28:28;5.30;;;1.70;;
23826;SDS011;12094;50.822;4.376;2022-09-01T16:31:01;7.82;;;1.92;;
23826;SDS011;12094;50.822;4.376;2022-09-01T16:33:34;7.30;;;1.60;;
23826;SDS011;12094;50.822;4.376;2022-09-01T16:53:15;3.70;;;1.80;;
23826;SDS011;12094;50.822;4.376;2022-09-01T16:55:37;5.35;;;1.85;;
23826;SDS011;12094;50.822;4.376;2022-09-01T17:04:31;6.20;;;1.80;;
23826;SDS011;12094;50.822;4.376;2022-09-01T17:12:44;9.40;;;2.08;;
23826;SDS011;12094;50.822;4.376;2022-09-01T17:15:30;5.35;;;2.25;;
23826;SDS011;12094;50.822;4.376;2022-09-01T17:20:32;9.85;;;1.80;;
23826;SDS011;12094;50.822;4.376;2022-09-01T17:23:02;4.53;;;2.03;;
23826;SDS011;12094;50.822;4.376;2022-09-01T17:25:42;4.47;;;1.70;;